Terminal Aerodrome Forecast
Issued by NWS

Home | Current Version | Previous Version | Text Only | Print | Product List | Glossary On
Versions: 1 2 3 4 5 6 7 8 9 10 11 12 13 14 15 16 17
828
FTUS43 KLSX 171604 AAB
TAFCPS
TAF AMD
KCPS 171604Z 1716/1812 23008KT P6SM SCT040 BKN250
     FM171800 26010G17KT P6SM SCT040
     FM180100 27004KT P6SM SKC=

USA.gov is the U.S. government's official web portal to all federal, state and local government web resources and services.